sensor_id;sensor_type;location;lat;lon;timestamp;P1;durP1;ratioP1;P2;durP2;ratioP2
64932;SDS011;51446;53.850;10.662;2024-01-15T00:02:01;10.52;;;3.78;;
64932;SDS011;51446;53.850;10.662;2024-01-15T00:04:27;8.93;;;2.87;;
64932;SDS011;51446;53.850;10.662;2024-01-15T00:06:53;14.50;;;3.70;;
64932;SDS011;51446;53.850;10.662;2024-01-15T00:09:18;15.35;;;3.72;;
64932;SDS011;51446;53.850;10.662;2024-01-15T00:11:43;7.75;;;3.50;;
64932;SDS011;51446;53.850;10.662;2024-01-15T00:14:09;10.73;;;3.28;;
64932;SDS011;51446;53.850;10.662;2024-01-15T00:16:34;9.80;;;3.00;;
64932;SDS011;51446;53.850;10.662;2024-01-15T00:18:59;12.43;;;3.43;;
64932;SDS011;51446;53.850;10.662;2024-01-15T00:21:25;11.93;;;3.73;;
64932;SDS011;51446;53.850;10.662;2024-01-15T00:23:50;9.30;;;3.00;;
64932;SDS011;51446;53.850;10.662;2024-01-15T00:26:16;10.87;;;2.90;;
64932;SDS011;51446;53.850;10.662;2024-01-15T00:28:41;4.78;;;3.30;;
64932;SDS011;51446;53.850;10.662;2024-01-15T00:31:06;11.02;;;3.10;;
64932;SDS011;51446;53.850;10.662;2024-01-15T00:33:32;9.73;;;3.53;;
64932;SDS011;51446;53.850;10.662;2024-01-15T00:35:57;10.63;;;3.40;;
64932;SDS011;51446;53.850;10.662;2024-01-15T00:38:23;11.10;;;3.10;;
64932;SDS011;51446;53.850;10.662;2024-01-15T00:40:48;9.35;;;3.30;;
64932;SDS011;51446;53.850;10.662;2024-01-15T00:43:14;9.47;;;3.83;;
64932;SDS011;51446;53.850;10.662;2024-01-15T00:45:39;9.17;;;3.23;;
64932;SDS011;51446;53.850;10.662;2024-01-15T00:48:05;10.20;;;2.80;;
64932;SDS011;51446;53.850;10.662;2024-01-15T00:50:30;13.30;;;3.13;;
64932;SDS011;51446;53.850;10.662;2024-01-15T00:52:55;13.03;;;3.37;;
64932;SDS011;51446;53.850;10.662;2024-01-15T00:55:21;11.07;;;2.97;;
64932;SDS011;51446;53.850;10.662;2024-01-15T00:57:46;6.33;;;2.97;;
64932;SDS011;51446;53.850;10.662;2024-01-15T01:00:11;11.63;;;3.30;;
64932;SDS011;51446;53.850;10.662;2024-01-15T01:02:37;9.75;;;2.90;;
64932;SDS011;51446;53.850;10.662;2024-01-15T01:05:03;8.00;;;3.03;;
64932;SDS011;51446;53.850;10.662;2024-01-15T01:07:28;5.30;;;2.70;;
64932;SDS011;51446;53.850;10.662;2024-01-15T01:09:54;8.63;;;3.20;;
64932;SDS011;51446;53.850;10.662;2024-01-15T01:12:20;11.75;;;4.18;;
64932;SDS011;51446;53.850;10.662;2024-01-15T01:14:46;10.17;;;3.17;;
64932;SDS011;51446;53.850;10.662;2024-01-15T01:17:11;6.27;;;2.80;;
64932;SDS011;51446;53.850;10.662;2024-01-15T01:19:36;15.45;;;3.63;;
64932;SDS011;51446;53.850;10.662;2024-01-15T01:22:02;7.80;;;2.90;;
64932;SDS011;51446;53.850;10.662;2024-01-15T01:24:27;17.20;;;3.77;;
64932;SDS011;51446;53.850;10.662;2024-01-15T01:26:52;13.03;;;3.10;;
64932;SDS011;51446;53.850;10.662;2024-01-15T01:29:18;13.90;;;3.03;;
64932;SDS011;51446;53.850;10.662;2024-01-15T01:31:43;8.93;;;3.23;;
64932;SDS011;51446;53.850;10.662;2024-01-15T01:34:09;7.20;;;2.97;;
64932;SDS011;51446;53.850;10.662;2024-01-15T01:36:35;8.67;;;3.00;;
64932;SDS011;51446;53.850;10.662;2024-01-15T01:39:00;6.23;;;2.77;;
64932;SDS011;51446;53.850;10.662;2024-01-15T01:41:25;7.10;;;2.77;;
64932;SDS011;51446;53.850;10.662;2024-01-15T01:43:50;8.63;;;3.00;;
64932;SDS011;51446;53.850;10.662;2024-01-15T01:46:16;10.50;;;2.70;;
64932;SDS011;51446;53.850;10.662;2024-01-15T01:48:41;8.98;;;3.20;;
64932;SDS011;51446;53.850;10.662;2024-01-15T01:51:07;13.43;;;3.17;;
64932;SDS011;51446;53.850;10.662;2024-01-15T01:53:33;8.53;;;3.40;;
64932;SDS011;51446;53.850;10.662;2024-01-15T01:56:00;13.98;;;3.90;;
64932;SDS011;51446;53.850;10.662;2024-01-15T01:58:27;9.00;;;3.42;;
64932;SDS011;51446;53.850;10.662;2024-01-15T02:00:53;9.90;;;3.60;;
64932;SDS011;51446;53.850;10.662;2024-01-15T02:03:19;15.43;;;3.70;;
64932;SDS011;51446;53.850;10.662;2024-01-15T02:05:45;10.10;;;3.42;;
64932;SDS011;51446;53.850;10.662;2024-01-15T02:08:13;11.82;;;3.20;;
64932;SDS011;51446;53.850;10.662;2024-01-15T02:10:39;12.27;;;3.50;;
64932;SDS011;51446;53.850;10.662;2024-01-15T02:13:04;10.30;;;3.10;;
64932;SDS011;51446;53.850;10.662;2024-01-15T02:15:30;13.20;;;3.30;;
64932;SDS011;51446;53.850;10.662;2024-01-15T02:17:58;17.67;;;3.72;;
64932;SDS011;51446;53.850;10.662;2024-01-15T02:20:28;17.60;;;4.23;;
64932;SDS011;51446;53.850;10.662;2024-01-15T02:23:01;14.95;;;3.25;;
64932;SDS011;51446;53.850;10.662;2024-01-15T02:25:42;16.83;;;3.30;;
64932;SDS011;51446;53.850;10.662;2024-01-15T02:28:10;14.98;;;3.30;;
64932;SDS011;51446;53.850;10.662;2024-01-15T02:30:39;9.07;;;2.97;;
64932;SDS011;51446;53.850;10.662;2024-01-15T02:33:06;10.80;;;2.43;;
64932;SDS011;51446;53.850;10.662;2024-01-15T02:35:32;12.52;;;3.13;;
64932;SDS011;51446;53.850;10.662;2024-01-15T02:37:58;13.45;;;3.30;;
64932;SDS011;51446;53.850;10.662;2024-01-15T02:40:24;16.67;;;3.13;;
64932;SDS011;51446;53.850;10.662;2024-01-15T02:42:49;12.05;;;3.00;;
64932;SDS011;51446;53.850;10.662;2024-01-15T02:45:15;19.20;;;3.83;;
64932;SDS011;51446;53.850;10.662;2024-01-15T02:47:40;11.73;;;3.10;;
64932;SDS011;51446;53.850;10.662;2024-01-15T02:50:05;19.20;;;3.63;;
64932;SDS011;51446;53.850;10.662;2024-01-15T02:52:31;14.93;;;3.35;;
64932;SDS011;51446;53.850;10.662;2024-01-15T02:54:56;12.27;;;3.40;;
64932;SDS011;51446;53.850;10.662;2024-01-15T02:57:22;17.80;;;3.40;;
64932;SDS011;51446;53.850;10.662;2024-01-15T02:59:47;15.43;;;3.53;;
64932;SDS011;51446;53.850;10.662;2024-01-15T03:02:12;18.43;;;3.50;;
64932;SDS011;51446;53.850;10.662;2024-01-15T03:04:42;16.47;;;3.57;;
64932;SDS011;51446;53.850;10.662;2024-01-15T03:07:08;16.98;;;2.88;;
64932;SDS011;51446;53.850;10.662;2024-01-15T03:09:33;26.83;;;3.77;;
64932;SDS011;51446;53.850;10.662;2024-01-15T03:11:58;15.17;;;3.03;;
64932;SDS011;51446;53.850;10.662;2024-01-15T03:14:24;13.57;;;2.67;;
64932;SDS011;51446;53.850;10.662;2024-01-15T03:16:51;18.30;;;4.20;;
64932;SDS011;51446;53.850;10.662;2024-01-15T03:19:16;18.00;;;3.05;;
64932;SDS011;51446;53.850;10.662;2024-01-15T03:21:41;15.57;;;3.63;;
64932;SDS011;51446;53.850;10.662;2024-01-15T03:24:06;16.43;;;2.93;;
64932;SDS011;51446;53.850;10.662;2024-01-15T03:26:32;16.93;;;2.90;;
64932;SDS011;51446;53.850;10.662;2024-01-15T03:28:57;17.87;;;3.80;;
64932;SDS011;51446;53.850;10.662;2024-01-15T03:31:22;18.87;;;3.57;;
64932;SDS011;51446;53.850;10.662;2024-01-15T03:33:48;16.33;;;3.17;;
64932;SDS011;51446;53.850;10.662;2024-01-15T03:36:13;14.23;;;2.97;;
64932;SDS011;51446;53.850;10.662;2024-01-15T03:38:40;14.57;;;3.10;;
64932;SDS011;51446;53.850;10.662;2024-01-15T03:41:06;11.48;;;2.92;;
64932;SDS011;51446;53.850;10.662;2024-01-15T03:43:32;15.83;;;2.90;;
64932;SDS011;51446;53.850;10.662;2024-01-15T03:45:57;14.13;;;2.90;;
64932;SDS011;51446;53.850;10.662;2024-01-15T03:48:22;18.07;;;3.60;;
64932;SDS011;51446;53.850;10.662;2024-01-15T03:50:48;12.00;;;2.97;;
64932;SDS011;51446;53.850;10.662;2024-01-15T03:53:13;11.93;;;2.93;;
64932;SDS011;51446;53.850;10.662;2024-01-15T03:55:38;8.70;;;3.00;;
64932;SDS011;51446;53.850;10.662;2024-01-15T03:58:03;10.40;;;2.90;;
64932;SDS011;51446;53.850;10.662;2024-01-15T04:00:29;10.63;;;2.47;;
64932;SDS011;51446;53.850;10.662;2024-01-15T04:02:54;11.87;;;3.10;;
64932;SDS011;51446;53.850;10.662;2024-01-15T04:05:19;10.23;;;2.90;;
64932;SDS011;51446;53.850;10.662;2024-01-15T04:07:45;16.17;;;3.60;;
64932;SDS011;51446;53.850;10.662;2024-01-15T04:10:10;12.50;;;2.70;;
64932;SDS011;51446;53.850;10.662;2024-01-15T04:12:35;12.00;;;2.60;;
64932;SDS011;51446;53.850;10.662;2024-01-15T04:15:00;13.82;;;3.20;;
64932;SDS011;51446;53.850;10.662;2024-01-15T04:17:26;13.67;;;3.00;;
64932;SDS011;51446;53.850;10.662;2024-01-15T04:19:52;10.93;;;2.70;;
64932;SDS011;51446;53.850;10.662;2024-01-15T04:22:17;7.93;;;2.90;;
64932;SDS011;51446;53.850;10.662;2024-01-15T04:24:42;13.40;;;2.87;;
64932;SDS011;51446;53.850;10.662;2024-01-15T04:27:07;6.93;;;2.97;;
64932;SDS011;51446;53.850;10.662;2024-01-15T04:29:33;14.87;;;3.30;;
64932;SDS011;51446;53.850;10.662;2024-01-15T04:31:58;7.95;;;2.67;;
64932;SDS011;51446;53.850;10.662;2024-01-15T04:34:23;18.52;;;3.40;;
64932;SDS011;51446;53.850;10.662;2024-01-15T04:36:49;13.70;;;3.08;;
64932;SDS011;51446;53.850;10.662;2024-01-15T04:39:14;14.87;;;2.90;;
64932;SDS011;51446;53.850;10.662;2024-01-15T04:41:39;10.63;;;3.17;;
64932;SDS011;51446;53.850;10.662;2024-01-15T04:44:04;11.67;;;2.90;;
64932;SDS011;51446;53.850;10.662;2024-01-15T04:46:30;16.37;;;3.80;;
64932;SDS011;51446;53.850;10.662;2024-01-15T04:48:55;8.47;;;3.10;;
64932;SDS011;51446;53.850;10.662;2024-01-15T04:51:20;12.77;;;3.23;;
64932;SDS011;51446;53.850;10.662;2024-01-15T04:53:46;18.37;;;3.40;;
64932;SDS011;51446;53.850;10.662;2024-01-15T04:56:11;14.53;;;2.77;;
64932;SDS011;51446;53.850;10.662;2024-01-15T04:58:36;18.07;;;3.37;;
64932;SDS011;51446;53.850;10.662;2024-01-15T05:01:01;9.20;;;3.17;;
64932;SDS011;51446;53.850;10.662;2024-01-15T05:03:27;10.23;;;2.97;;
64932;SDS011;51446;53.850;10.662;2024-01-15T05:05:52;20.37;;;3.67;;
64932;SDS011;51446;53.850;10.662;2024-01-15T05:08:17;16.03;;;3.60;;
64932;SDS011;51446;53.850;10.662;2024-01-15T05:10:43;10.55;;;2.63;;
64932;SDS011;51446;53.850;10.662;2024-01-15T05:13:08;13.93;;;3.15;;
64932;SDS011;51446;53.850;10.662;2024-01-15T05:15:33;11.10;;;3.67;;
64932;SDS011;51446;53.850;10.662;2024-01-15T05:17:59;22.33;;;3.47;;
64932;SDS011;51446;53.850;10.662;2024-01-15T05:20:24;13.13;;;3.80;;
64932;SDS011;51446;53.850;10.662;2024-01-15T05:22:49;16.10;;;3.77;;
64932;SDS011;51446;53.850;10.662;2024-01-15T05:25:15;13.60;;;3.20;;
64932;SDS011;51446;53.850;10.662;2024-01-15T05:27:40;16.07;;;3.50;;
64932;SDS011;51446;53.850;10.662;2024-01-15T05:30:05;22.60;;;3.43;;
64932;SDS011;51446;53.850;10.662;2024-01-15T05:32:31;14.73;;;3.10;;
64932;SDS011;51446;53.850;10.662;2024-01-15T05:34:57;18.27;;;3.83;;
64932;SDS011;51446;53.850;10.662;2024-01-15T05:37:22;10.70;;;3.30;;
64932;SDS011;51446;53.850;10.662;2024-01-15T05:39:47;18.23;;;4.30;;
64932;SDS011;51446;53.850;10.662;2024-01-15T05:42:13;16.73;;;3.70;;
64932;SDS011;51446;53.850;10.662;2024-01-15T05:44:38;21.13;;;4.23;;
64932;SDS011;51446;53.850;10.662;2024-01-15T05:47:03;14.10;;;3.23;;
64932;SDS011;51446;53.850;10.662;2024-01-15T05:49:29;17.13;;;3.10;;
64932;SDS011;51446;53.850;10.662;2024-01-15T05:51:54;21.03;;;3.83;;
64932;SDS011;51446;53.850;10.662;2024-01-15T05:54:20;16.87;;;3.77;;
64932;SDS011;51446;53.850;10.662;2024-01-15T05:56:45;13.30;;;3.50;;
64932;SDS011;51446;53.850;10.662;2024-01-15T05:59:10;14.52;;;2.78;;
64932;SDS011;51446;53.850;10.662;2024-01-15T06:01:36;17.45;;;3.63;;
64932;SDS011;51446;53.850;10.662;2024-01-15T06:04:01;17.17;;;3.60;;
64932;SDS011;51446;53.850;10.662;2024-01-15T06:06:27;13.00;;;3.23;;
64932;SDS011;51446;53.850;10.662;2024-01-15T06:08:52;25.57;;;4.30;;
64932;SDS011;51446;53.850;10.662;2024-01-15T06:11:18;23.10;;;3.72;;
64932;SDS011;51446;53.850;10.662;2024-01-15T06:13:43;21.77;;;3.93;;
64932;SDS011;51446;53.850;10.662;2024-01-15T06:16:13;20.47;;;3.23;;
64932;SDS011;51446;53.850;10.662;2024-01-15T06:18:40;11.63;;;3.13;;
64932;SDS011;51446;53.850;10.662;2024-01-15T06:21:05;15.40;;;3.10;;
64932;SDS011;51446;53.850;10.662;2024-01-15T06:23:30;18.38;;;3.95;;
64932;SDS011;51446;53.850;10.662;2024-01-15T06:25:55;17.95;;;3.47;;
64932;SDS011;51446;53.850;10.662;2024-01-15T06:28:21;13.20;;;3.35;;
64932;SDS011;51446;53.850;10.662;2024-01-15T06:30:46;24.50;;;4.25;;
64932;SDS011;51446;53.850;10.662;2024-01-15T06:33:11;19.60;;;3.87;;
64932;SDS011;51446;53.850;10.662;2024-01-15T06:35:36;11.27;;;3.50;;
64932;SDS011;51446;53.850;10.662;2024-01-15T06:38:02;14.80;;;3.23;;
64932;SDS011;51446;53.850;10.662;2024-01-15T06:40:27;18.43;;;4.23;;
64932;SDS011;51446;53.850;10.662;2024-01-15T06:42:53;17.20;;;3.57;;
64932;SDS011;51446;53.850;10.662;2024-01-15T06:45:18;14.77;;;3.60;;
64932;SDS011;51446;53.850;10.662;2024-01-15T06:47:43;17.47;;;3.43;;
64932;SDS011;51446;53.850;10.662;2024-01-15T06:50:08;20.57;;;3.77;;
64932;SDS011;51446;53.850;10.662;2024-01-15T06:52:34;21.73;;;4.03;;
64932;SDS011;51446;53.850;10.662;2024-01-15T06:54:59;19.03;;;3.47;;
64932;SDS011;51446;53.850;10.662;2024-01-15T06:57:24;22.20;;;4.37;;
64932;SDS011;51446;53.850;10.662;2024-01-15T06:59:50;17.70;;;3.80;;
64932;SDS011;51446;53.850;10.662;2024-01-15T07:02:15;16.93;;;3.93;;
64932;SDS011;51446;53.850;10.662;2024-01-15T07:04:41;18.03;;;3.67;;
64932;SDS011;51446;53.850;10.662;2024-01-15T07:07:06;16.70;;;3.63;;
64932;SDS011;51446;53.850;10.662;2024-01-15T07:09:31;24.27;;;4.27;;
64932;SDS011;51446;53.850;10.662;2024-01-15T07:11:56;20.87;;;4.17;;
64932;SDS011;51446;53.850;10.662;2024-01-15T07:14:23;20.20;;;4.15;;
64932;SDS011;51446;53.850;10.662;2024-01-15T07:16:48;15.37;;;3.93;;
64932;SDS011;51446;53.850;10.662;2024-01-15T07:19:13;18.57;;;4.00;;
64932;SDS011;51446;53.850;10.662;2024-01-15T07:21:39;24.73;;;4.77;;
64932;SDS011;51446;53.850;10.662;2024-01-15T07:24:05;24.85;;;3.75;;
64932;SDS011;51446;53.850;10.662;2024-01-15T07:26:30;17.83;;;3.63;;
64932;SDS011;51446;53.850;10.662;2024-01-15T07:28:56;18.50;;;3.72;;
64932;SDS011;51446;53.850;10.662;2024-01-15T07:31:21;15.77;;;3.47;;
64932;SDS011;51446;53.850;10.662;2024-01-15T07:33:47;20.20;;;3.73;;
64932;SDS011;51446;53.850;10.662;2024-01-15T07:36:12;20.33;;;4.00;;
64932;SDS011;51446;53.850;10.662;2024-01-15T07:38:37;17.10;;;4.00;;
64932;SDS011;51446;53.850;10.662;2024-01-15T07:41:03;17.27;;;4.30;;
64932;SDS011;51446;53.850;10.662;2024-01-15T07:43:28;20.40;;;3.30;;
64932;SDS011;51446;53.850;10.662;2024-01-15T07:45:54;17.27;;;3.63;;
64932;SDS011;51446;53.850;10.662;2024-01-15T07:48:19;18.37;;;3.30;;
64932;SDS011;51446;53.850;10.662;2024-01-15T07:50:45;13.70;;;3.95;;
64932;SDS011;51446;53.850;10.662;2024-01-15T07:53:10;14.40;;;2.93;;
64932;SDS011;51446;53.850;10.662;2024-01-15T07:55:36;21.73;;;3.93;;
64932;SDS011;51446;53.850;10.662;2024-01-15T07:58:01;19.47;;;3.43;;
64932;SDS011;51446;53.850;10.662;2024-01-15T08:00:27;12.47;;;2.83;;
64932;SDS011;51446;53.850;10.662;2024-01-15T08:02:52;20.38;;;3.05;;
64932;SDS011;51446;53.850;10.662;2024-01-15T08:05:18;16.87;;;3.57;;
64932;SDS011;51446;53.850;10.662;2024-01-15T08:07:44;17.13;;;3.35;;
64932;SDS011;51446;53.850;10.662;2024-01-15T08:10:09;11.70;;;3.33;;
64932;SDS011;51446;53.850;10.662;2024-01-15T08:12:34;16.90;;;2.87;;
64932;SDS011;51446;53.850;10.662;2024-01-15T08:15:00;13.77;;;3.30;;
64932;SDS011;51446;53.850;10.662;2024-01-15T08:17:25;13.47;;;3.27;;
64932;SDS011;51446;53.850;10.662;2024-01-15T08:19:54;10.98;;;2.97;;
64932;SDS011;51446;53.850;10.662;2024-01-15T08:22:19;13.30;;;3.55;;
64932;SDS011;51446;53.850;10.662;2024-01-15T08:24:44;11.63;;;2.40;;
64932;SDS011;51446;53.850;10.662;2024-01-15T08:27:10;18.30;;;2.87;;
64932;SDS011;51446;53.850;10.662;2024-01-15T08:29:35;11.77;;;2.73;;
64932;SDS011;51446;53.850;10.662;2024-01-15T08:32:01;26.83;;;8.53;;
64932;SDS011;51446;53.850;10.662;2024-01-15T08:34:26;14.80;;;3.50;;
64932;SDS011;51446;53.850;10.662;2024-01-15T08:36:51;11.60;;;2.85;;
64932;SDS011;51446;53.850;10.662;2024-01-15T08:39:17;11.20;;;2.90;;
64932;SDS011;51446;53.850;10.662;2024-01-15T08:41:44;10.47;;;2.87;;
64932;SDS011;51446;53.850;10.662;2024-01-15T08:44:09;13.05;;;3.00;;
64932;SDS011;51446;53.850;10.662;2024-01-15T08:46:35;9.97;;;3.00;;
64932;SDS011;51446;53.850;10.662;2024-01-15T08:49:00;13.33;;;3.10;;
64932;SDS011;51446;53.850;10.662;2024-01-15T08:51:27;13.40;;;4.33;;
64932;SDS011;51446;53.850;10.662;2024-01-15T08:53:52;14.27;;;3.83;;
64932;SDS011;51446;53.850;10.662;2024-01-15T08:56:17;14.63;;;3.97;;
64932;SDS011;51446;53.850;10.662;2024-01-15T08:58:42;13.57;;;3.50;;
64932;SDS011;51446;53.850;10.662;2024-01-15T09:01:08;15.43;;;3.00;;
64932;SDS011;51446;53.850;10.662;2024-01-15T09:03:33;10.03;;;3.57;;
64932;SDS011;51446;53.850;10.662;2024-01-15T09:05:59;12.15;;;2.80;;
64932;SDS011;51446;53.850;10.662;2024-01-15T09:08:24;12.43;;;2.80;;
64932;SDS011;51446;53.850;10.662;2024-01-15T09:10:51;9.88;;;2.90;;
64932;SDS011;51446;53.850;10.662;2024-01-15T09:13:16;12.63;;;3.23;;
64932;SDS011;51446;53.850;10.662;2024-01-15T09:15:41;6.00;;;2.57;;
64932;SDS011;51446;53.850;10.662;2024-01-15T09:18:07;8.63;;;3.30;;
64932;SDS011;51446;53.850;10.662;2024-01-15T09:20:33;10.50;;;2.80;;
64932;SDS011;51446;53.850;10.662;2024-01-15T09:22:58;11.70;;;2.87;;
64932;SDS011;51446;53.850;10.662;2024-01-15T09:25:23;13.93;;;3.10;;
64932;SDS011;51446;53.850;10.662;2024-01-15T09:27:48;14.07;;;4.00;;
64932;SDS011;51446;53.850;10.662;2024-01-15T09:30:14;13.02;;;3.15;;
64932;SDS011;51446;53.850;10.662;2024-01-15T09:32:39;12.17;;;3.40;;
64932;SDS011;51446;53.850;10.662;2024-01-15T09:35:05;7.27;;;3.00;;
64932;SDS011;51446;53.850;10.662;2024-01-15T09:37:31;13.23;;;4.07;;
64932;SDS011;51446;53.850;10.662;2024-01-15T09:39:56;13.87;;;3.43;;
64932;SDS011;51446;53.850;10.662;2024-01-15T09:42:23;10.73;;;3.00;;
64932;SDS011;51446;53.850;10.662;2024-01-15T09:44:49;9.30;;;3.00;;
64932;SDS011;51446;53.850;10.662;2024-01-15T09:47:15;13.02;;;2.80;;
64932;SDS011;51446;53.850;10.662;2024-01-15T09:49:42;6.87;;;2.70;;
64932;SDS011;51446;53.850;10.662;2024-01-15T09:52:08;7.35;;;2.47;;
64932;SDS011;51446;53.850;10.662;2024-01-15T09:54:36;8.85;;;2.65;;
64932;SDS011;51446;53.850;10.662;2024-01-15T09:57:02;6.10;;;2.30;;
64932;SDS011;51446;53.850;10.662;2024-01-15T09:59:28;2.70;;;1.85;;
64932;SDS011;51446;53.850;10.662;2024-01-15T10:01:54;5.20;;;2.10;;
64932;SDS011;51446;53.850;10.662;2024-01-15T10:04:21;4.47;;;2.08;;
64932;SDS011;51446;53.850;10.662;2024-01-15T10:06:48;3.27;;;2.07;;
64932;SDS011;51446;53.850;10.662;2024-01-15T10:09:16;4.13;;;1.80;;
64932;SDS011;51446;53.850;10.662;2024-01-15T10:11:42;3.20;;;2.00;;
64932;SDS011;51446;53.850;10.662;2024-01-15T10:14:09;4.18;;;1.83;;
64932;SDS011;51446;53.850;10.662;2024-01-15T10:16:37;4.57;;;2.10;;
64932;SDS011;51446;53.850;10.662;2024-01-15T10:19:02;3.60;;;1.77;;
64932;SDS011;51446;53.850;10.662;2024-01-15T10:21:28;3.27;;;1.90;;
64932;SDS011;51446;53.850;10.662;2024-01-15T10:23:53;2.57;;;1.90;;
64932;SDS011;51446;53.850;10.662;2024-01-15T10:26:21;3.03;;;2.20;;
64932;SDS011;51446;53.850;10.662;2024-01-15T10:28:50;2.35;;;2.15;;
64932;SDS011;51446;53.850;10.662;2024-01-15T10:31:16;3.97;;;2.08;;
64932;SDS011;51446;53.850;10.662;2024-01-15T10:33:44;2.00;;;1.80;;
64932;SDS011;51446;53.850;10.662;2024-01-15T10:36:09;6.00;;;2.03;;
64932;SDS011;51446;53.850;10.662;2024-01-15T10:38:35;2.13;;;1.93;;
64932;SDS011;51446;53.850;10.662;2024-01-15T10:41:01;3.60;;;2.10;;
64932;SDS011;51446;53.850;10.662;2024-01-15T10:43:26;2.80;;;1.97;;
64932;SDS011;51446;53.850;10.662;2024-01-15T10:45:52;8.57;;;2.10;;
64932;SDS011;51446;53.850;10.662;2024-01-15T10:48:18;3.88;;;1.92;;
64932;SDS011;51446;53.850;10.662;2024-01-15T10:50:47;6.63;;;1.87;;
64932;SDS011;51446;53.850;10.662;2024-01-15T10:53:14;2.78;;;1.77;;
64932;SDS011;51446;53.850;10.662;2024-01-15T10:55:41;10.13;;;1.77;;
64932;SDS011;51446;53.850;10.662;2024-01-15T10:58:07;2.72;;;1.80;;
64932;SDS011;51446;53.850;10.662;2024-01-15T11:00:33;2.63;;;1.65;;
64932;SDS011;51446;53.850;10.662;2024-01-15T11:03:01;4.85;;;1.80;;
64932;SDS011;51446;53.850;10.662;2024-01-15T11:05:27;2.88;;;1.95;;
64932;SDS011;51446;53.850;10.662;2024-01-15T11:07:56;3.90;;;1.70;;
64932;SDS011;51446;53.850;10.662;2024-01-15T11:10:40;2.20;;;1.77;;
64932;SDS011;51446;53.850;10.662;2024-01-15T11:16:06;4.05;;;1.92;;
64932;SDS011;51446;53.850;10.662;2024-01-15T11:18:36;4.32;;;2.20;;
64932;SDS011;51446;53.850;10.662;2024-01-15T11:23:49;3.25;;;1.77;;
64932;SDS011;51446;53.850;10.662;2024-01-15T11:29:10;2.35;;;2.10;;
64932;SDS011;51446;53.850;10.662;2024-01-15T11:32:00;3.17;;;1.88;;
64932;SDS011;51446;53.850;10.662;2024-01-15T11:37:18;2.38;;;1.70;;
64932;SDS011;51446;53.850;10.662;2024-01-15T11:39:44;6.53;;;2.10;;
64932;SDS011;51446;53.850;10.662;2024-01-15T11:42:10;3.05;;;1.90;;
64932;SDS011;51446;53.850;10.662;2024-01-15T11:44:36;3.35;;;2.42;;
64932;SDS011;51446;53.850;10.662;2024-01-15T11:47:09;2.95;;;2.00;;
64932;SDS011;51446;53.850;10.662;2024-01-15T11:52:35;1.60;;;1.50;;
64932;SDS011;51446;53.850;10.662;2024-01-15T11:55:06;4.97;;;2.20;;
64932;SDS011;51446;53.850;10.662;2024-01-15T12:00:16;5.65;;;2.40;;
64932;SDS011;51446;53.850;10.662;2024-01-15T12:02:43;2.58;;;2.33;;
64932;SDS011;51446;53.850;10.662;2024-01-15T12:05:10;5.70;;;2.33;;
64932;SDS011;51446;53.850;10.662;2024-01-15T12:07:38;4.13;;;2.33;;
64932;SDS011;51446;53.850;10.662;2024-01-15T12:10:16;4.13;;;2.35;;
64932;SDS011;51446;53.850;10.662;2024-01-15T12:12:53;3.33;;;2.13;;
64932;SDS011;51446;53.850;10.662;2024-01-15T12:15:23;3.78;;;2.10;;
64932;SDS011;51446;53.850;10.662;2024-01-15T12:17:50;4.70;;;2.60;;
64932;SDS011;51446;53.850;10.662;2024-01-15T12:20:15;6.90;;;2.80;;
64932;SDS011;51446;53.850;10.662;2024-01-15T12:22:42;2.10;;;1.83;;
64932;SDS011;51446;53.850;10.662;2024-01-15T12:25:08;3.50;;;2.03;;
64932;SDS011;51446;53.850;10.662;2024-01-15T12:27:34;4.17;;;1.90;;
64932;SDS011;51446;53.850;10.662;2024-01-15T12:30:00;4.18;;;2.30;;
64932;SDS011;51446;53.850;10.662;2024-01-15T12:32:25;7.17;;;2.20;;
64932;SDS011;51446;53.850;10.662;2024-01-15T12:34:51;7.13;;;2.03;;
64932;SDS011;51446;53.850;10.662;2024-01-15T12:37:19;3.25;;;2.40;;
64932;SDS011;51446;53.850;10.662;2024-01-15T12:39:45;7.97;;;2.20;;
64932;SDS011;51446;53.850;10.662;2024-01-15T12:42:11;5.18;;;2.53;;
64932;SDS011;51446;53.850;10.662;2024-01-15T12:44:37;5.17;;;2.50;;
64932;SDS011;51446;53.850;10.662;2024-01-15T12:47:05;8.98;;;2.53;;
64932;SDS011;51446;53.850;10.662;2024-01-15T12:49:31;4.35;;;2.30;;
64932;SDS011;51446;53.850;10.662;2024-01-15T12:51:57;3.57;;;2.20;;
64932;SDS011;51446;53.850;10.662;2024-01-15T12:54:23;5.45;;;2.05;;
64932;SDS011;51446;53.850;10.662;2024-01-15T12:56:49;4.97;;;2.40;;
64932;SDS011;51446;53.850;10.662;2024-01-15T12:59:15;5.13;;;2.40;;
64932;SDS011;51446;53.850;10.662;2024-01-15T13:01:40;3.03;;;2.42;;
64932;SDS011;51446;53.850;10.662;2024-01-15T13:04:06;6.43;;;2.80;;
64932;SDS011;51446;53.850;10.662;2024-01-15T13:06:33;3.30;;;2.50;;
64932;SDS011;51446;53.850;10.662;2024-01-15T13:08:59;6.07;;;2.70;;
64932;SDS011;51446;53.850;10.662;2024-01-15T13:11:25;6.67;;;2.70;;
64932;SDS011;51446;53.850;10.662;2024-01-15T13:13:50;3.92;;;2.40;;
64932;SDS011;51446;53.850;10.662;2024-01-15T13:16:16;5.38;;;2.50;;
64932;SDS011;51446;53.850;10.662;2024-01-15T13:18:41;5.07;;;3.10;;
64932;SDS011;51446;53.850;10.662;2024-01-15T13:21:06;2.87;;;2.63;;
64932;SDS011;51446;53.850;10.662;2024-01-15T13:23:31;3.90;;;2.60;;
64932;SDS011;51446;53.850;10.662;2024-01-15T13:25:57;4.10;;;2.50;;
64932;SDS011;51446;53.850;10.662;2024-01-15T13:28:23;6.32;;;2.65;;
64932;SDS011;51446;53.850;10.662;2024-01-15T13:30:48;3.67;;;2.40;;
64932;SDS011;51446;53.850;10.662;2024-01-15T13:33:14;5.10;;;2.70;;
64932;SDS011;51446;53.850;10.662;2024-01-15T13:35:39;8.93;;;3.70;;
64932;SDS011;51446;53.850;10.662;2024-01-15T13:38:04;8.57;;;3.97;;
64932;SDS011;51446;53.850;10.662;2024-01-15T13:40:30;3.80;;;2.70;;
64932;SDS011;51446;53.850;10.662;2024-01-15T13:42:55;4.83;;;2.37;;
64932;SDS011;51446;53.850;10.662;2024-01-15T13:45:20;3.63;;;2.63;;
64932;SDS011;51446;53.850;10.662;2024-01-15T13:47:46;3.03;;;2.75;;
64932;SDS011;51446;53.850;10.662;2024-01-15T13:50:11;4.00;;;2.80;;
64932;SDS011;51446;53.850;10.662;2024-01-15T13:52:37;3.30;;;2.93;;
64932;SDS011;51446;53.850;10.662;2024-01-15T13:55:02;3.42;;;2.40;;
64932;SDS011;51446;53.850;10.662;2024-01-15T13:57:28;5.50;;;2.40;;
64932;SDS011;51446;53.850;10.662;2024-01-15T13:59:53;3.10;;;2.57;;
64932;SDS011;51446;53.850;10.662;2024-01-15T14:02:18;3.53;;;2.30;;
64932;SDS011;51446;53.850;10.662;2024-01-15T14:04:45;3.83;;;2.25;;
64932;SDS011;51446;53.850;10.662;2024-01-15T14:07:10;7.40;;;2.30;;
64932;SDS011;51446;53.850;10.662;2024-01-15T14:09:36;6.03;;;2.40;;
64932;SDS011;51446;53.850;10.662;2024-01-15T14:12:02;4.53;;;2.50;;
64932;SDS011;51446;53.850;10.662;2024-01-15T14:14:28;5.47;;;2.40;;
64932;SDS011;51446;53.850;10.662;2024-01-15T14:16:53;2.47;;;2.27;;
64932;SDS011;51446;53.850;10.662;2024-01-15T14:19:18;3.60;;;2.20;;
64932;SDS011;51446;53.850;10.662;2024-01-15T14:21:43;6.87;;;2.77;;
64932;SDS011;51446;53.850;10.662;2024-01-15T14:24:09;6.60;;;2.80;;
64932;SDS011;51446;53.850;10.662;2024-01-15T14:26:34;3.27;;;2.60;;
64932;SDS011;51446;53.850;10.662;2024-01-15T14:28:59;5.20;;;2.80;;
64932;SDS011;51446;53.850;10.662;2024-01-15T14:31:25;3.67;;;2.60;;
64932;SDS011;51446;53.850;10.662;2024-01-15T14:33:51;6.13;;;2.83;;
64932;SDS011;51446;53.850;10.662;2024-01-15T14:36:17;4.15;;;2.88;;